| Date | Time | Temp. (oF) | Dew Point (oF) | Rel. Hum. (%) | Press. (in.) | Wind Dir. | Wind Speed (mph) | Hourly Rainfall (in.) |
|
|---|---|---|---|---|---|---|---|---|---|
| 1 | 12/31 | 00:00 | 37 | 35 | 93 | 30.18 | ENE | 2 | 0.00 |
| 2 | 12/30 | 23:00 | 36 | 34 | 93 | 30.19 | NE | 2 | 0.00 |
| 3 | 12/30 | 22:00 | 36 | 33 | 91 | 30.21 | E | 2 | 0.00 |
| 4 | 12/30 | 21:00 | 36 | 33 | 91 | 30.20 | ENE | 2 | 0.00 |
| 5 | 12/30 | 20:00 | 36 | 32 | 88 | 30.22 | ESE | 4 | 0.00 |
| 6 | 12/30 | 19:00 | 37 | 32 | 82 | 30.21 | ESE | 8 | 0.00 |
| 7 | 12/30 | 18:00 | 37 | 29 | 74 | 30.24 | ENE | 3 | 0.00 |
| 8 | 12/30 | 17:00 | 38 | 29 | 71 | 30.25 | NE | 2 | 0.00 |
| 9 | 12/30 | 16:00 | 39 | 29 | 68 | 30.25 | ESE | 1 | 0.00 |
| 10 | 12/30 | 15:00 | 39 | 28 | 66 | 30.26 | ESE | 3 | 0.00 |
| 11 | 12/30 | 14:00 | 39 | 27 | 63 | 30.26 | ESE | 2 | 0.00 |
| 12 | 12/30 | 13:00 | 40 | 27 | 60 | 30.27 | SE | 4 | 0.00 |
| 13 | 12/30 | 12:00 | 38 | 26 | 63 | 30.30 | SSW | 7 | 0.00 |
| 14 | 12/30 | 11:00 | 35 | 29 | 80 | 30.34 | SE | 2 | 0.00 |
| 15 | 12/30 | 10:00 | 28 | 27 | 100 | 30.35 | NE | 4 | 0.00 |
| 16 | 12/30 | 09:00 | 23 | 23 | 100 | 30.35 | NE | 2 | 0.00 |
| 17 | 12/30 | 08:00 | 20 | 19 | 100 | 30.35 | ENE | 1 | 0.00 |
| 18 | 12/30 | 07:00 | 21 | 21 | 100 | 30.34 | SSW | 0 | 0.00 |
| 19 | 12/30 | 06:00 | 22 | 22 | 100 | 30.34 | SSW | 0 | 0.00 |
| 20 | 12/30 | 05:00 | 23 | 22 | 99 | 30.33 | SSW | 0 | 0.00 |
| 21 | 12/30 | 04:00 | 23 | 22 | 99 | 30.31 | SSW | 0 | 0.00 |
| 22 | 12/30 | 03:00 | 25 | 24 | 99 | 30.30 | SW | 0 | 0.00 |
| 23 | 12/30 | 02:00 | 25 | 24 | 98 | 30.29 | N | 0 | 0.00 |
| 24 | 12/30 | 01:00 | 25 | 23 | 95 | 30.30 | N | 2 | 0.00 |